Time;durP1;ratioP1;P1;durP2;ratioP2;P2;SDS_P1;SDS_P2;PMS_P1;PMS_P2;Temp;Humidity;BMP_temperature;BMP_pressure;BME280_temperature;BME280_humidity;BME280_pressure;Samples;Min_cycle;Max_cycle;Signal;HPM_P1;HPM_P2
2022/06/01 00:00:23;;;;;;;4.82;2.72;;;;;;;14.48;100.00;96088.38;4974204;28;20203;-68
2022/06/01 00:02:50;;;;;;;3.33;2.35;;;;;;;14.47;100.00;96087.53;4972946;28;20207;-68
2022/06/01 00:05:18;;;;;;;6.57;2.97;;;;;;;14.36;100.00;96090.81;4973181;28;20705;-68
2022/06/01 00:07:45;;;;;;;8.02;3.00;;;;;;;14.26;100.00;96092.25;4973688;28;20733;-67
2022/06/01 00:10:11;;;;;;;6.72;2.67;;;;;;;14.19;100.00;96099.34;4974052;28;20231;-68
2022/06/01 00:12:38;;;;;;;4.90;2.85;;;;;;;14.14;100.00;96096.50;4972503;28;20749;-68
2022/06/01 00:15:06;;;;;;;6.10;2.90;;;;;;;14.14;100.00;96091.19;4973539;28;20210;-68
2022/06/01 00:17:32;;;;;;;4.93;2.92;;;;;;;14.13;100.00;96092.25;4973327;28;20230;-68
2022/06/01 00:20:00;;;;;;;4.85;2.67;;;;;;;14.16;100.00;96091.81;4973543;28;20200;-68
2022/06/01 00:22:27;;;;;;;4.35;2.97;;;;;;;14.12;100.00;96087.94;4972919;28;20290;-68
2022/06/01 00:24:53;;;;;;;4.35;2.80;;;;;;;14.02;100.00;96090.94;4973968;28;20298;-68
2022/06/01 00:27:20;;;;;;;4.38;2.88;;;;;;;14.07;100.00;96095.66;4973150;28;20223;-67
2022/06/01 00:29:47;;;;;;;3.75;2.58;;;;;;;14.18;100.00;96098.56;4973590;28;20218;-68
2022/06/01 00:32:15;;;;;;;4.38;2.72;;;;;;;14.22;100.00;96098.97;4973006;28;20462;-68
2022/06/01 00:34:42;;;;;;;5.18;2.92;;;;;;;14.07;100.00;96106.25;4973163;28;20611;-68
2022/06/01 00:37:11;;;;;;;9.32;2.80;;;;;;;14.23;100.00;96103.22;4974354;28;20230;-68
2022/06/01 00:39:38;;;;;;;4.60;2.50;;;;;;;14.04;100.00;96107.47;4976303;28;20697;-68
2022/06/01 00:42:14;;;;;;;8.68;3.25;;;;;;;14.23;100.00;96111.19;4976596;28;20624;-68
2022/06/01 00:44:40;;;;;;;5.43;2.85;;;;;;;14.02;100.00;96100.72;4975708;28;20927;-68
2022/06/01 00:47:08;;;;;;;4.45;2.70;;;;;;;13.99;100.00;96101.16;4976751;28;20219;-67
2022/06/01 00:49:37;;;;;;;6.40;3.03;;;;;;;13.96;100.00;96098.88;4976628;28;20354;-68
2022/06/01 00:52:05;;;;;;;6.47;2.72;;;;;;;14.05;100.00;96098.50;4974431;28;20219;-68
2022/06/01 00:54:33;;;;;;;9.75;3.10;;;;;;;13.95;100.00;96093.78;4976266;28;20219;-68
2022/06/01 00:57:07;;;;;;;6.35;3.38;;;;;;;14.16;100.00;96105.06;4975732;28;20726;-69
2022/06/01 00:59:37;;;;;;;7.55;3.33;;;;;;;14.04;100.00;96098.72;4976513;28;20218;-68
2022/06/01 01:02:04;;;;;;;5.22;3.28;;;;;;;14.03;100.00;96100.53;4976870;28;20203;-68
2022/06/01 01:04:33;;;;;;;7.15;3.13;;;;;;;14.18;100.00;96097.75;4975779;28;20203;-68
2022/06/01 01:07:03;;;;;;;6.40;3.47;;;;;;;14.17;100.00;96099.56;4975497;28;20305;-68
2022/06/01 01:09:31;;;;;;;7.40;3.75;;;;;;;13.98;100.00;96101.34;4975579;28;20671;-68
2022/06/01 01:12:05;;;;;;;6.82;4.20;;;;;;;14.09;100.00;96105.06;4976249;28;20230;-68
2022/06/01 01:14:35;;;;;;;6.78;3.78;;;;;;;13.98;100.00;96107.47;4975739;28;20606;-68
2022/06/01 01:17:04;;;;;;;8.82;4.85;;;;;;;13.95;100.00;96102.56;4975999;28;20455;-68
2022/06/01 01:19:35;;;;;;;8.38;4.65;;;;;;;14.01;100.00;96101.75;4976232;28;20236;-68
2022/06/01 01:22:23;;;;;;;7.57;4.65;;;;;;;14.12;100.00;96114.44;4975659;28;20210;-68
2022/06/01 01:25:18;;;;;;;7.75;5.07;;;;;;;14.15;100.00;96103.44;4976009;28;20199;-68
2022/06/01 01:27:45;;;;;;;8.43;4.82;;;;;;;13.97;100.00;96105.00;4975514;28;20572;-67
2022/06/01 01:30:40;;;;;;;7.40;4.57;;;;;;;14.18;100.00;96103.06;4975766;28;20486;-68
2022/06/01 01:33:11;;;;;;;5.65;4.03;;;;;;;14.02;100.00;96100.72;4962117;28;20204;-68
2022/06/01 01:35:38;;;;;;;7.97;4.03;;;;;;;13.91;100.00;96093.38;4976137;28;20231;-68
2022/06/01 01:38:10;;;;;;;7.68;4.15;;;;;;;13.88;100.00;96099.06;4975456;28;20207;-68
2022/06/01 01:40:38;;;;;;;6.88;3.88;;;;;;;13.96;100.00;96101.53;4975833;28;20199;-68
2022/06/01 01:43:07;;;;;;;6.00;3.90;;;;;;;13.76;100.00;96103.34;4975198;28;20218;-68
2022/06/01 01:45:36;;;;;;;6.53;3.47;;;;;;;13.70;100.00;96098.03;4975547;28;20204;-68
2022/06/01 01:48:03;;;;;;;6.13;3.70;;;;;;;13.64;100.00;96099.59;4974974;28;20212;-67
2022/06/01 01:50:30;;;;;;;7.53;3.20;;;;;;;13.57;100.00;96104.06;4975676;28;20231;-69
2022/06/01 01:52:57;;;;;;;5.57;3.63;;;;;;;13.48;100.00;96105.25;4971087;28;20199;-68
2022/06/01 01:55:33;;;;;;;6.85;2.97;;;;;;;13.63;100.00;96103.28;4975210;28;20961;-67
2022/06/01 01:58:08;;;;;;;4.07;3.03;;;;;;;13.58;100.00;96111.00;4975646;28;20211;-68
2022/06/01 02:00:37;;;;;;;5.32;3.38;;;;;;;13.59;100.00;96107.34;4975186;28;20195;-67
2022/06/01 02:03:09;;;;;;;8.60;3.70;;;;;;;13.74;100.00;96105.34;4974346;28;20210;-67
2022/06/01 02:08:28;;;;;;;7.57;3.10;;;;;;;13.73;100.00;96100.25;4975483;28;20233;-68
2022/06/01 02:13:48;;;;;;;5.13;3.20;;;;;;;13.52;100.00;96106.50;4975145;28;20230;-68
2022/06/01 02:16:15;;;;;;;5.35;3.15;;;;;;;13.52;100.00;96116.28;4975208;28;20234;-68
2022/06/01 02:18:47;;;;;;;6.23;3.60;;;;;;;13.73;100.00;96118.78;4974597;28;20604;-68
2022/06/01 02:21:18;;;;;;;5.45;3.35;;;;;;;13.66;100.00;96116.13;4975270;28;20814;-67
2022/06/01 02:23:47;;;;;;;5.72;3.28;;;;;;;13.56;100.00;96113.03;4975004;28;20215;-68
2022/06/01 02:26:14;;;;;;;7.70;3.35;;;;;;;13.54;100.00;96114.25;4975018;28;20322;-69
2022/06/01 02:28:43;;;;;;;5.25;3.15;;;;;;;13.48;100.00;96118.50;4970745;28;20207;-67
2022/06/01 02:31:12;;;;;;;6.28;3.60;;;;;;;13.45;100.00;96115.41;4974707;28;20295;-68
2022/06/01 02:33:40;;;;;;;5.07;3.22;;;;;;;13.48;100.00;96112.41;4973898;28;20204;-67
2022/06/01 02:36:09;;;;;;;4.90;3.10;;;;;;;13.60;100.00;96116.09;4974879;28;20465;-68
2022/06/01 02:38:40;;;;;;;5.55;3.22;;;;;;;13.55;100.00;96115.88;4975336;28;20460;-67
2022/06/01 02:42:25;;;;;;;5.38;3.28;;;;;;;13.50;100.00;96113.84;4975275;28;20368;-67
2022/06/01 02:43:53;;;;;;;5.50;3.22;;;;;;;13.47;100.00;96111.56;4973802;28;20486;-67
2022/06/01 02:49:42;;;;;;;5.70;2.83;;;;;;;13.34;100.00;96117.81;4970760;28;20217;-68
2022/06/01 02:52:09;;;;;;;8.40;3.20;;;;;;;13.22;100.00;96117.56;4970645;28;20603;-67
2022/06/01 02:54:35;;;;;;;5.57;3.33;;;;;;;13.26;100.00;96112.69;4974402;28;20207;-67
2022/06/01 02:57:02;;;;;;;4.75;3.05;;;;;;;13.28;100.00;96115.97;4974558;28;20223;-68
2022/06/01 02:59:28;;;;;;;4.68;3.22;;;;;;;13.29;100.00;96110.47;4973734;28;20210;-68
2022/06/01 03:01:55;;;;;;;5.88;3.00;;;;;;;13.14;100.00;96120.38;4974412;28;20203;-68
2022/06/01 03:04:21;;;;;;;8.07;3.30;;;;;;;12.95;100.00;96117.59;4973505;28;20207;-67
2022/06/01 03:06:49;;;;;;;4.40;2.83;;;;;;;13.16;100.00;96114.88;4974386;28;20401;-68
2022/06/01 03:09:15;;;;;;;4.70;2.65;;;;;;;13.04;100.00;96121.72;4974291;28;20686;-67
2022/06/01 03:11:42;;;;;;;5.82;3.30;;;;;;;12.97;100.00;96119.06;4974283;28;20219;-67
2022/06/01 03:14:08;;;;;;;6.00;3.05;;;;;;;12.89;100.00;96121.84;4973496;28;20468;-68
2022/06/01 03:16:35;;;;;;;7.47;3.20;;;;;;;12.78;100.00;96125.00;4974413;28;20236;-68
2022/06/01 03:19:01;;;;;;;6.55;3.53;;;;;;;12.80;100.00;96115.06;4974146;28;20204;-68
2022/06/01 03:21:29;;;;;;;5.95;3.70;;;;;;;12.82;100.00;96117.50;4973461;28;20609;-68
2022/06/01 03:23:57;;;;;;;4.28;2.88;;;;;;;12.90;100.00;96122.66;4973624;28;20691;-68
2022/06/01 03:26:23;;;;;;;5.30;3.53;;;;;;;12.87;100.00;96120.41;4974727;28;20749;-68
2022/06/01 03:28:50;;;;;;;5.10;3.25;;;;;;;12.82;100.00;96125.44;4973830;28;20207;-68
2022/06/01 03:31:16;;;;;;;9.05;3.45;;;;;;;12.66;100.00;96132.84;4974064;28;20599;-67
2022/06/01 03:33:43;;;;;;;5.18;3.17;;;;;;;12.66;100.00;96131.00;4973786;28;20211;-68
2022/06/01 03:36:10;;;;;;;4.68;3.05;;;;;;;12.62;100.00;96135.03;4973929;28;20310;-68
2022/06/01 03:38:37;;;;;;;5.47;3.07;;;;;;;12.76;100.00;96133.31;4973784;28;20203;-68
2022/06/01 03:41:06;;;;;;;7.55;3.50;;;;;;;12.86;100.00;96134.63;4974261;28;20211;-67
2022/06/01 03:45:55;;;;;;;8.77;3.73;;;;;;;12.82;100.00;96134.16;4973397;28;20210;-67
2022/06/01 03:46:19;;;;;;;9.10;3.72;;;;;;;12.81;100.00;96139.66;4974300;28;20227;-68
2022/06/01 03:48:46;;;;;;;4.57;2.97;;;;;;;12.89;100.00;96126.31;4974016;28;20845;-68
2022/06/01 03:51:12;;;;;;;3.70;2.38;;;;;;;12.85;100.00;96133.81;4974268;28;20712;-68
2022/06/01 03:53:39;;;;;;;4.37;2.63;;;;;;;12.80;100.00;96138.00;4970072;28;20699;-68
2022/06/01 03:56:08;;;;;;;4.22;2.83;;;;;;;13.03;100.00;96130.66;4973966;28;20325;-67
2022/06/01 03:58:36;;;;;;;5.22;3.10;;;;;;;13.13;100.00;96125.84;4973734;28;20278;-68
2022/06/01 04:01:05;;;;;;;6.82;3.70;;;;;;;13.32;100.00;96135.72;4973640;28;20587;-67
2022/06/01 04:03:32;;;;;;;5.07;3.47;;;;;;;13.35;100.00;96132.69;4972745;28;20680;-68
2022/06/01 04:05:58;;;;;;;6.88;3.88;;;;;;;13.43;100.00;96131.50;4973461;28;20497;-68
2022/06/01 04:08:25;;;;;;;5.15;3.33;;;;;;;13.46;100.00;96138.25;4973602;28;20211;-67
2022/06/01 04:10:51;;;;;;;4.30;2.75;;;;;;;13.57;100.00;96137.69;4973715;28;20200;-68
2022/06/01 04:13:19;;;;;;;5.35;3.17;;;;;;;13.54;100.00;96140.72;4976294;28;20207;-67
2022/06/01 04:15:45;;;;;;;8.20;3.67;;;;;;;13.57;100.00;96151.72;4977057;28;20207;-68
2022/06/01 04:18:12;;;;;;;6.55;3.80;;;;;;;13.53;100.00;96145.19;4977110;28;20247;-68
2022/06/01 04:20:39;;;;;;;7.25;3.50;;;;;;;13.65;100.00;96148.09;4976957;28;20214;-68
2022/06/01 04:23:05;;;;;;;6.68;3.88;;;;;;;13.64;100.00;96144.63;4976086;28;20195;-68
2022/06/01 04:25:31;;;;;;;6.68;3.97;;;;;;;13.78;100.00;96148.94;4976671;28;20203;-67
2022/06/01 04:27:58;;;;;;;6.72;3.83;;;;;;;13.84;100.00;96145.53;4977211;28;20795;-67
2022/06/01 04:30:27;;;;;;;7.93;4.43;;;;;;;13.98;100.00;96151.69;4977022;28;20550;-68
2022/06/01 04:32:55;;;;;;;9.15;4.00;;;;;;;14.04;100.00;96143.75;4975893;28;20269;-68
2022/06/01 04:35:23;;;;;;;6.75;3.92;;;;;;;14.17;100.00;96149.13;4977449;28;20211;-68
2022/06/01 04:37:50;;;;;;;8.20;4.38;;;;;;;13.99;100.00;96149.63;4976089;28;20730;-68
2022/06/01 04:40:18;;;;;;;12.13;5.00;;;;;;;14.12;100.00;96144.41;4976858;28;20203;-67
2022/06/01 04:42:45;;;;;;;9.35;5.30;;;;;;;13.98;100.00;96155.13;4976133;28;20234;-68
2022/06/01 04:45:14;;;;;;;11.80;5.38;;;;;;;14.18;100.00;96150.75;4976681;28;20222;-68
2022/06/01 04:47:42;;;;;;;9.45;5.32;;;;;;;14.38;100.00;96141.78;4976361;28;20234;-68
2022/06/01 04:50:10;;;;;;;9.23;5.32;;;;;;;14.35;100.00;96152.00;4976343;28;20203;-68
2022/06/01 04:52:37;;;;;;;9.32;5.18;;;;;;;14.37;100.00;96144.66;4972890;28;21098;-67
2022/06/01 04:55:07;;;;;;;10.10;5.18;;;;;;;14.62;100.00;96145.69;4976450;28;20207;-68
2022/06/01 04:57:33;;;;;;;10.07;5.30;;;;;;;14.81;100.00;96140.38;4976310;28;20694;-69
2022/06/01 04:59:59;;;;;;;8.73;5.38;;;;;;;14.82;100.00;96150.78;4976100;28;20214;-67
2022/06/01 05:02:26;;;;;;;10.30;5.05;;;;;;;14.56;100.00;96139.38;4975447;28;20202;-67
2022/06/01 05:04:54;;;;;;;8.45;4.95;;;;;;;14.98;100.00;96150.38;4976470;28;20207;-68
2022/06/01 05:07:20;;;;;;;7.93;4.97;;;;;;;14.73;100.00;96137.94;4976061;28;20226;-68
2022/06/01 05:09:46;;;;;;;8.38;5.30;;;;;;;14.99;100.00;96146.69;4976338;28;20218;-67
2022/06/01 05:12:13;;;;;;;9.63;4.47;;;;;;;15.03;100.00;96145.28;4975520;28;20256;-68
2022/06/01 05:14:39;;;;;;;8.77;4.93;;;;;;;15.08;100.00;96140.13;4976062;28;20203;-67
2022/06/01 05:17:06;;;;;;;7.10;4.28;;;;;;;15.38;100.00;96136.03;4975902;28;20230;-68
2022/06/01 05:19:33;;;;;;;7.05;4.50;;;;;;;15.51;100.00;96144.75;4976119;28;20230;-69
2022/06/01 05:22:01;;;;;;;8.07;4.78;;;;;;;15.60;100.00;96140.03;4976064;28;20208;-67
2022/06/01 05:24:27;;;;;;;6.72;4.00;;;;;;;15.64;100.00;96141.25;4975165;28;20203;-67
2022/06/01 05:26:54;;;;;;;8.95;4.97;;;;;;;15.59;100.00;96138.41;4975602;28;20707;-68
2022/06/01 05:29:22;;;;;;;10.35;4.55;;;;;;;15.65;100.00;96134.91;4975965;28;20204;-67
2022/06/01 05:31:48;;;;;;;8.20;4.32;;;;;;;15.77;100.00;96138.53;4976123;28;20332;-68
2022/06/01 05:34:15;;;;;;;7.45;4.43;;;;;;;15.44;100.00;96140.50;4975224;28;20199;-68
2022/06/01 05:36:41;;;;;;;7.50;3.78;;;;;;;15.41;100.00;96140.91;4976137;28;21226;-67
2022/06/01 05:39:09;;;;;;;7.72;4.32;;;;;;;15.80;100.00;96146.91;4976757;28;20214;-68
2022/06/01 05:41:35;;;;;;;10.32;4.43;;;;;;;15.91;100.00;96146.22;4976101;28;20199;-68
2022/06/01 05:44:02;;;;;;;5.68;3.92;;;;;;;15.76;100.00;96142.22;4975780;28;20207;-67
2022/06/01 05:46:30;;;;;;;6.68;4.13;;;;;;;16.06;100.00;96142.31;4977445;28;20227;-68
2022/06/01 05:48:57;;;;;;;5.65;3.15;;;;;;;16.11;99.99;96142.44;4975758;28;20214;-68
2022/06/01 05:51:23;;;;;;;7.88;4.30;;;;;;;16.21;99.50;96142.81;4974939;28;20255;-68
2022/06/01 05:53:49;;;;;;;6.88;4.18;;;;;;;16.23;98.80;96138.09;4974345;28;20651;-68
2022/06/01 05:56:17;;;;;;;6.53;3.78;;;;;;;16.06;100.00;96136.97;4976562;28;20763;-68
2022/06/01 05:58:45;;;;;;;7.05;4.07;;;;;;;16.15;100.00;96141.03;4975785;28;20572;-69
2022/06/01 06:01:12;;;;;;;6.60;4.05;;;;;;;16.28;100.00;96140.97;4975379;28;21055;-68
2022/06/01 06:03:38;;;;;;;7.93;3.72;;;;;;;16.11;100.00;96146.97;4974591;28;20218;-68
2022/06/01 06:06:15;;;;;;;6.32;3.90;;;;;;;16.31;100.00;96151.16;4975251;28;20215;-68
2022/06/01 06:08:44;;;;;;;5.38;3.90;;;;;;;16.22;100.00;96152.41;4976209;28;20291;-68
2022/06/01 06:11:11;;;;;;;6.60;3.67;;;;;;;16.33;99.51;96146.47;4976581;28;20215;-68
2022/06/01 06:13:39;;;;;;;6.25;3.75;;;;;;;16.43;100.00;96153.97;4975302;28;20227;-68
2022/06/01 06:16:06;;;;;;;6.15;3.50;;;;;;;16.25;99.66;96153.84;4975458;28;21071;-68
2022/06/01 06:18:33;;;;;;;9.10;3.92;;;;;;;16.23;99.05;96156.72;4975142;28;20319;-68
2022/06/01 06:20:59;;;;;;;6.13;3.78;;;;;;;16.17;100.00;96159.41;4976248;28;20207;-68
2022/06/01 06:23:26;;;;;;;4.82;3.45;;;;;;;16.19;99.89;96157.34;4975066;28;20289;-68
2022/06/01 06:25:52;;;;;;;10.40;4.00;;;;;;;16.47;100.00;96160.47;4975391;28;20272;-67
2022/06/01 06:28:19;;;;;;;6.97;4.38;;;;;;;16.65;99.06;96153.41;4976058;28;20211;-68
2022/06/01 06:30:47;;;;;;;6.72;3.92;;;;;;;16.93;97.50;96157.25;4975241;28;20213;-68
2022/06/01 06:33:14;;;;;;;6.10;3.53;;;;;;;16.72;97.96;96164.81;4974691;28;20223;-68
2022/06/01 06:35:40;;;;;;;6.45;3.70;;;;;;;16.58;98.59;96164.06;4974746;28;20203;-68
2022/06/01 06:38:07;;;;;;;12.85;3.92;;;;;;;16.51;98.89;96157.19;4975745;28;20210;-68
2022/06/01 06:40:34;;;;;;;6.70;3.97;;;;;;;16.67;99.19;96168.09;4974921;28;20210;-68
2022/06/01 06:43:00;;;;;;;3.30;2.28;;;;;;;17.16;95.16;96152.94;4974719;28;20203;-68
2022/06/01 06:45:27;;;;;;;6.10;3.80;;;;;;;17.40;97.17;96146.81;4974697;28;20569;-68
2022/06/01 06:47:54;;;;;;;7.07;3.53;;;;;;;17.18;96.02;96150.91;4975210;28;20227;-68
2022/06/01 06:50:23;;;;;;;6.30;3.50;;;;;;;17.26;96.18;96155.97;4975066;28;20203;-68
2022/06/01 06:52:49;;;;;;;6.25;3.53;;;;;;;17.06;94.96;96156.34;4972854;28;20223;-68
2022/06/01 06:55:16;;;;;;;6.43;3.55;;;;;;;17.16;95.53;96163.59;4975530;28;20214;-68
2022/06/01 06:57:43;;;;;;;3.67;2.63;;;;;;;17.02;94.83;96160.44;4974908;28;20233;-68
2022/06/01 07:00:11;;;;;;;6.82;2.70;;;;;;;17.62;91.75;96157.84;4975116;28;20214;-68
2022/06/01 07:02:38;;;;;;;4.65;2.78;;;;;;;17.41;91.68;96145.78;4974418;28;20207;-68
2022/06/01 07:05:06;;;;;;;7.28;3.72;;;;;;;17.85;91.37;96148.13;4975003;28;20214;-68
2022/06/01 07:07:33;;;;;;;9.10;4.22;;;;;;;17.18;95.02;96153.56;4974744;28;20600;-68
2022/06/01 07:09:59;;;;;;;5.38;2.50;;;;;;;17.07;94.62;96144.63;4974510;28;20222;-68
2022/06/01 07:12:26;;;;;;;7.10;3.65;;;;;;;17.12;94.41;96146.44;4973533;28;20495;-68
2022/06/01 07:14:52;;;;;;;6.15;3.90;;;;;;;17.31;94.62;96145.47;4974908;28;20206;-68
2022/06/01 07:17:19;;;;;;;7.55;3.90;;;;;;;17.41;95.19;96140.44;4973918;28;20231;-68
2022/06/01 07:19:45;;;;;;;6.72;3.60;;;;;;;17.75;94.56;96140.66;4974313;28;20207;-68
2022/06/01 07:22:13;;;;;;;5.13;3.60;;;;;;;18.10;90.95;96143.50;4973736;28;20253;-68
2022/06/01 07:24:39;;;;;;;6.10;3.22;;;;;;;18.44;89.21;96141.81;4974518;28;20230;-68
2022/06/01 07:27:06;;;;;;;6.07;3.40;;;;;;;18.33;87.78;96141.78;4974520;28;21004;-68
2022/06/01 07:29:33;;;;;;;4.70;2.88;;;;;;;18.77;87.11;96144.78;4974204;28;20374;-68
2022/06/01 07:31:59;;;;;;;4.82;3.00;;;;;;;19.04;85.30;96128.13;4973441;28;20222;-68
2022/06/01 07:34:26;;;;;;;3.95;3.00;;;;;;;18.98;85.66;96136.25;4973549;28;20203;-68
2022/06/01 07:36:52;;;;;;;3.17;2.20;;;;;;;19.19;82.97;96141.84;4973725;28;20790;-68
2022/06/01 07:44:53;;;;;;;5.07;2.80;;;;;;;19.16;82.52;96128.16;4974095;28;20222;-68
2022/06/01 07:47:20;;;;;;;5.00;2.95;;;;;;;19.39;83.60;96128.16;4977600;28;20223;-69
2022/06/01 07:49:47;;;;;;;3.55;2.30;;;;;;;19.63;82.98;96125.22;4977792;28;20203;-68
2022/06/01 07:52:14;;;;;;;7.72;2.92;;;;;;;19.78;83.26;96122.84;4977427;28;20210;-68
2022/06/01 07:54:44;;;;;;;4.15;2.70;;;;;;;19.59;81.10;96138.25;4977994;28;20203;-68
2022/06/01 07:57:11;;;;;;;4.47;2.53;;;;;;;19.57;82.44;96129.63;4977929;28;20227;-68
2022/06/01 07:59:38;;;;;;;5.82;2.60;;;;;;;19.51;80.49;96132.41;4977589;28;20297;-69
2022/06/01 08:02:09;;;;;;;5.00;1.58;;;;;;;19.27;80.71;96132.66;4978044;28;20214;-68
2022/06/01 08:04:37;;;;;;;5.93;3.00;;;;;;;19.26;80.41;96136.41;4977211;28;20214;-68
2022/06/01 08:07:04;;;;;;;3.88;2.38;;;;;;;19.47;79.46;96139.28;4977226;28;20226;-68
2022/06/01 08:09:30;;;;;;;6.45;2.47;;;;;;;19.62;79.85;96131.59;4977371;28;20214;-68
2022/06/01 08:14:42;;;;;;;8.07;2.70;;;;;;;20.19;76.55;96136.84;4977384;28;20268;-68
2022/06/01 08:17:09;;;;;;;6.43;2.53;;;;;;;20.05;74.60;96134.66;4976265;28;20640;-68
2022/06/01 08:19:35;;;;;;;5.53;2.88;;;;;;;19.91;76.72;96142.16;4976451;28;20216;-69
2022/06/01 08:22:02;;;;;;;5.43;2.75;;;;;;;19.87;75.04;96140.97;4976836;28;20219;-68
2022/06/01 08:24:30;;;;;;;5.25;2.60;;;;;;;19.91;76.69;96139.47;4975428;28;20199;-68
2022/06/01 08:26:57;;;;;;;3.15;2.45;;;;;;;20.30;75.79;96138.66;4977074;28;20223;-68
2022/06/01 08:29:24;;;;;;;3.75;2.28;;;;;;;20.17;72.51;96133.56;4976042;28;20210;-68
2022/06/01 08:31:50;;;;;;;6.22;2.53;;;;;;;20.37;72.29;96134.78;4976410;28;20203;-68
2022/06/01 08:34:17;;;;;;;6.20;2.50;;;;;;;20.26;71.65;96129.47;4977127;28;20234;-68
2022/06/01 08:36:46;;;;;;;6.13;2.17;;;;;;;20.17;72.13;96130.91;4976455;28;20708;-68
2022/06/01 08:39:13;;;;;;;5.32;2.42;;;;;;;20.11;72.58;96129.19;4976295;28;20203;-68
2022/06/01 08:41:40;;;;;;;3.88;1.90;;;;;;;20.39;69.76;96131.84;4977058;28;20664;-68
2022/06/01 08:44:21;;;;;;;3.53;2.28;;;;;;;20.62;68.82;96131.75;4976127;28;20314;-68
2022/06/01 08:46:48;;;;;;;7.72;2.25;;;;;;;20.54;69.79;96137.50;4976141;28;20238;-69
2022/06/01 08:49:22;;;;;;;2.25;1.60;;;;;;;20.77;68.26;96126.69;4975779;28;20225;-68
2022/06/01 08:51:50;;;;;;;2.65;1.73;;;;;;;20.70;68.01;96131.38;4975095;28;20207;-67
2022/06/01 08:54:17;;;;;;;3.53;2.40;;;;;;;20.54;66.14;96132.94;4972415;28;20224;-68
2022/06/01 08:56:46;;;;;;;1.88;1.60;;;;;;;20.61;65.46;96127.44;4974904;28;20580;-68
2022/06/01 08:59:26;;;;;;;7.88;2.40;;;;;;;20.72;66.63;96131.91;4974473;28;20204;-68
2022/06/01 09:02:02;;;;;;;6.10;1.85;;;;;;;20.82;64.61;96138.28;4974987;28;20299;-68
2022/06/01 09:04:35;;;;;;;3.75;2.10;;;;;;;20.57;63.88;96128.97;4974557;28;20203;-68
2022/06/01 09:07:19;;;;;;;5.32;1.88;;;;;;;20.39;66.75;96132.69;4975152;28;20219;-68
2022/06/01 09:10:11;;;;;;;3.00;1.98;;;;;;;20.47;66.55;96134.97;4975676;28;20203;-68
2022/06/01 09:12:38;;;;;;;2.78;1.98;;;;;;;20.59;69.12;96141.06;4972980;28;20203;-68
2022/06/01 09:15:17;;;;;;;3.90;2.10;;;;;;;20.86;63.82;96129.53;4973156;28;20675;-69
2022/06/01 09:17:44;;;;;;;2.30;1.67;;;;;;;20.95;65.18;96129.94;4976363;28;20234;-68
2022/06/01 09:23:00;;;;;;;2.70;1.25;;;;;;;21.42;57.59;96118.59;4974709;28;20572;-68
2022/06/01 09:25:32;;;;;;;1.77;1.10;;;;;;;21.53;54.98;96120.41;4975908;28;20207;-68
2022/06/01 09:28:00;;;;;;;4.70;1.60;;;;;;;21.37;51.90;96115.84;4976099;28;20214;-68
2022/06/01 09:30:34;;;;;;;1.88;1.20;;;;;;;21.79;54.29;96117.00;4976469;28;20206;-67
2022/06/01 09:33:22;;;;;;;2.72;1.40;;;;;;;21.92;53.33;96119.31;4974488;28;20711;-68
2022/06/01 09:36:01;;;;;;;1.90;1.23;;;;;;;22.01;50.82;96113.28;4976034;28;20207;-68
2022/06/01 09:38:42;;;;;;;3.70;1.58;;;;;;;22.52;54.27;96115.50;4975338;28;21293;-68
2022/06/01 09:41:10;;;;;;;2.42;1.60;;;;;;;22.72;54.74;96114.63;4975919;28;20214;-68
2022/06/01 09:43:39;;;;;;;10.82;1.67;;;;;;;22.88;53.06;96119.03;4976232;28;20207;-68
2022/06/01 09:46:08;;;;;;;1.50;1.05;;;;;;;22.15;53.92;96109.16;4976705;28;20258;-68
2022/06/01 09:48:37;;;;;;;2.53;1.80;;;;;;;22.20;57.25;96122.63;4974868;28;20293;-68
2022/06/01 09:51:15;;;;;;;2.40;1.17;;;;;;;22.39;51.00;96118.56;4975349;28;20852;-69
2022/06/01 09:53:45;;;;;;;7.57;1.40;;;;;;;23.10;50.75;96113.63;4975174;28;20227;-68
2022/06/01 09:56:16;;;;;;;2.60;1.50;;;;;;;23.33;49.60;96108.66;4975478;28;20223;-69
2022/06/01 10:07:01;;;;;;;2.22;1.30;;;;;;;22.27;50.27;96113.31;4975924;28;20618;-68
2022/06/01 10:09:30;;;;;;;1.75;1.35;;;;;;;22.49;49.61;96122.19;4975615;28;20203;-68
2022/06/01 10:11:58;;;;;;;3.88;1.30;;;;;;;22.33;49.49;96114.22;4975614;28;20210;-68
2022/06/01 10:14:30;;;;;;;1.45;0.88;;;;;;;22.70;47.49;96115.94;4973187;28;21051;-68
2022/06/01 10:17:09;;;;;;;3.53;1.23;;;;;;;22.66;47.44;96122.06;4975578;28;20288;-68
2022/06/01 10:19:39;;;;;;;2.17;1.13;;;;;;;22.44;48.07;96127.50;4974843;28;20207;-68
2022/06/01 10:22:14;;;;;;;2.38;1.40;;;;;;;22.69;48.17;96125.06;4974379;28;20222;-68
2022/06/01 10:24:46;;;;;;;3.88;1.38;;;;;;;22.55;48.85;96131.09;4975758;28;20866;-68
2022/06/01 10:27:13;;;;;;;1.83;1.05;;;;;;;22.55;48.19;96123.84;4975568;28;20265;-68
2022/06/01 10:29:44;;;;;;;7.22;1.13;;;;;;;22.25;48.73;96119.97;4975702;28;20557;-69
2022/06/01 10:32:16;;;;;;;4.63;1.83;;;;;;;22.13;49.50;96124.69;4975490;28;20207;-67
2022/06/01 10:34:48;;;;;;;2.17;1.30;;;;;;;22.24;49.95;96121.88;4975506;28;20318;-68
2022/06/01 10:37:23;;;;;;;3.75;1.70;;;;;;;22.34;50.54;96123.88;4975366;28;20706;-68
2022/06/01 10:39:53;;;;;;;1.20;1.00;;;;;;;22.19;50.94;96121.81;4975561;28;20214;-67
2022/06/01 10:43:16;;;;;;;3.22;1.30;;;;;;;22.28;50.33;96124.91;4974690;28;20647;-68
2022/06/01 10:45:15;;;;;;;1.88;1.60;;;;;;;22.43;50.90;96123.19;4974805;28;20203;-68
2022/06/01 10:47:58;;;;;;;4.50;1.77;;;;;;;22.03;51.70;96129.13;4974704;28;20224;-68
2022/06/01 10:50:29;;;;;;;1.65;1.27;;;;;;;21.85;52.34;96134.81;4975310;28;20207;-69
2022/06/01 10:53:02;;;;;;;2.58;1.40;;;;;;;21.80;52.09;96129.38;4974373;28;20210;-68
2022/06/01 10:55:32;;;;;;;2.97;1.35;;;;;;;21.73;52.18;96126.06;4975428;28;20203;-68
2022/06/01 10:58:01;;;;;;;2.60;1.35;;;;;;;21.95;53.19;96129.56;4975681;28;20203;-68
2022/06/01 11:00:31;;;;;;;2.10;1.48;;;;;;;21.98;51.40;96118.31;4974909;28;20208;-68
2022/06/01 11:03:30;;;;;;;2.13;1.48;;;;;;;22.27;50.59;96121.38;4973435;28;20206;-68
2022/06/01 11:06:12;;;;;;;3.47;1.40;;;;;;;22.60;51.13;96115.81;4973814;28;20616;-68
2022/06/01 11:08:49;;;;;;;4.93;1.70;;;;;;;22.80;50.69;96103.41;4977330;28;20210;-68
2022/06/01 11:11:24;;;;;;;2.17;1.40;;;;;;;23.03;48.74;96107.66;4974749;28;20285;-69
2022/06/01 11:14:09;;;;;;;3.15;1.33;;;;;;;22.55;47.61;96107.72;4973359;28;20314;-68
2022/06/01 11:16:49;;;;;;;2.65;1.52;;;;;;;22.44;49.00;96106.00;4974457;28;20235;-69
2022/06/01 11:19:35;;;;;;;2.95;1.55;;;;;;;22.26;49.53;96113.59;4974089;28;20207;-68
2022/06/01 11:22:11;;;;;;;3.58;1.65;;;;;;;22.36;48.87;96105.66;4973286;28;20211;-68
2022/06/01 11:24:59;;;;;;;3.13;1.38;;;;;;;22.46;48.18;96097.69;4972886;28;20203;-69
2022/06/01 11:27:39;;;;;;;1.92;1.38;;;;;;;22.85;49.02;96091.91;4975250;28;20230;-70
2022/06/01 11:30:10;;;;;;;3.42;1.40;;;;;;;23.30;50.04;96093.84;4974573;28;20203;-70
2022/06/01 11:32:44;;;;;;;2.83;1.48;;;;;;;24.38;49.91;96096.56;4972977;28;20212;-69
2022/06/01 11:35:19;;;;;;;3.90;1.27;;;;;;;24.29;46.62;96098.16;4974498;28;20698;-70
2022/06/01 11:37:53;;;;;;;1.67;1.30;;;;;;;24.07;46.72;96097.53;4974459;28;20309;-70
2022/06/01 11:40:31;;;;;;;3.25;1.30;;;;;;;24.23;47.52;96093.81;4974662;28;20231;-69
2022/06/01 11:43:05;;;;;;;5.78;1.30;;;;;;;24.37;46.47;96086.88;4973322;28;20203;-70
2022/06/01 11:45:35;;;;;;;2.50;1.58;;;;;;;24.16;47.49;96094.09;4973239;28;20207;-70
2022/06/01 11:48:05;;;;;;;3.08;1.45;;;;;;;23.78;46.92;96085.59;4974570;28;20226;-70
2022/06/01 11:50:54;;;;;;;6.50;1.63;;;;;;;24.46;45.65;96088.78;4972415;28;20199;-70
2022/06/01 11:53:29;;;;;;;4.57;1.70;;;;;;;24.27;45.94;96101.09;4971210;28;20207;-69
2022/06/01 11:56:09;;;;;;;2.10;1.40;;;;;;;24.21;45.92;96107.56;4972010;28;20980;-69
2022/06/01 11:58:45;;;;;;;5.10;1.40;;;;;;;23.89;46.38;96102.56;4971276;28;20421;-70
2022/06/01 12:01:14;;;;;;;3.90;1.50;;;;;;;24.16;45.94;96090.56;4969121;28;20337;-70
2022/06/01 12:03:55;;;;;;;2.95;1.52;;;;;;;24.19;45.18;96090.06;4973398;28;20298;-70
2022/06/01 12:06:49;;;;;;;1.88;1.45;;;;;;;24.21;43.75;96085.19;4974064;28;20223;-69
2022/06/01 12:09:25;;;;;;;2.95;1.60;;;;;;;23.70;46.73;96083.41;4972975;28;20212;-69